Time;durP1;ratioP1;P1;durP2;ratioP2;P2;SDS_P1;SDS_P2;PMS_P1;PMS_P2;Temp;Humidity;BMP_temperature;BMP_pressure;BME280_temperature;BME280_humidity;BME280_pressure;Samples;Min_cycle;Max_cycle;Signal;HPM_P1;HPM_P2
2023/09/29 00:00:06;;;;;;;7.72;4.55;;;;;;;14.93;100.00;100783.75;6274835;23;20098;-73
2023/09/29 00:02:36;;;;;;;6.68;4.47;;;;;;;14.94;100.00;100781.06;6274553;23;20011;-73
2023/09/29 00:05:09;;;;;;;7.90;4.43;;;;;;;14.87;100.00;100781.44;6273030;23;20028;-73
2023/09/29 00:07:39;;;;;;;8.75;5.15;;;;;;;14.93;100.00;100781.13;6271545;23;20017;-73
2023/09/29 00:10:15;;;;;;;9.88;5.53;;;;;;;14.94;100.00;100772.28;6260644;23;20106;-73
2023/09/29 00:12:48;;;;;;;10.77;5.13;;;;;;;14.96;100.00;100771.31;6273486;23;21316;-73
2023/09/29 00:15:19;;;;;;;7.47;5.20;;;;;;;15.01;100.00;100769.28;6265986;23;20008;-73
2023/09/29 00:17:49;;;;;;;8.07;5.60;;;;;;;15.08;100.00;100770.69;6276624;23;20403;-73
2023/09/29 00:20:26;;;;;;;11.15;6.28;;;;;;;15.10;100.00;100784.63;6277267;23;20020;-72
2023/09/29 00:22:58;;;;;;;12.65;6.18;;;;;;;15.16;100.00;100783.47;6277359;23;20019;-73
2023/09/29 00:25:29;;;;;;;12.55;6.55;;;;;;;15.20;100.00;100791.09;6269875;23;20047;-72
2023/09/29 00:28:00;;;;;;;12.00;6.25;;;;;;;15.24;100.00;100790.06;6274554;23;20052;-73
2023/09/29 00:30:30;;;;;;;12.73;6.53;;;;;;;15.37;100.00;100777.13;6272976;23;20086;-73
2023/09/29 00:33:03;;;;;;;12.05;6.93;;;;;;;15.42;100.00;100786.50;6272095;23;20097;-73
2023/09/29 00:35:33;;;;;;;14.25;6.95;;;;;;;15.42;100.00;100788.28;6269556;23;20064;-73
2023/09/29 00:38:04;;;;;;;11.93;6.22;;;;;;;15.49;100.00;100787.00;6272766;23;20020;-73
2023/09/29 00:40:35;;;;;;;17.20;6.22;;;;;;;15.50;100.00;100789.56;6271196;23;20366;-73
2023/09/29 00:43:06;;;;;;;10.38;6.30;;;;;;;15.25;100.00;100790.88;6275440;23;20088;-73
2023/09/29 00:45:37;;;;;;;12.73;6.28;;;;;;;14.95;100.00;100795.91;6274180;23;20020;-73
2023/09/29 00:48:10;;;;;;;8.80;6.15;;;;;;;15.06;100.00;100788.34;6271134;23;20024;-73
2023/09/29 00:50:41;;;;;;;9.65;6.10;;;;;;;15.13;100.00;100787.09;6276309;23;20020;-73
2023/09/29 00:53:16;;;;;;;13.43;6.95;;;;;;;15.14;100.00;100780.91;6271119;23;20099;-73
2023/09/29 00:55:48;;;;;;;16.20;6.28;;;;;;;15.09;100.00;100780.28;6271176;23;20115;-73
2023/09/29 00:58:18;;;;;;;10.52;6.07;;;;;;;15.18;100.00;100779.81;6272117;23;20009;-73
2023/09/29 01:00:49;;;;;;;10.13;5.20;;;;;;;15.17;100.00;100779.91;6275542;23;20101;-73
2023/09/29 01:03:19;;;;;;;13.15;6.03;;;;;;;15.05;100.00;100775.25;6278177;23;20021;-73
2023/09/29 01:05:52;;;;;;;12.80;6.35;;;;;;;14.99;100.00;100765.88;6275725;23;20079;-74
2023/09/29 01:08:26;;;;;;;10.43;5.72;;;;;;;14.95;100.00;100761.72;6275017;23;20017;-74
2023/09/29 01:10:56;;;;;;;10.60;6.18;;;;;;;14.98;100.00;100760.72;6269990;23;20016;-73
2023/09/29 01:13:27;;;;;;;11.05;5.40;;;;;;;14.94;100.00;100765.25;6270594;23;20498;-73
2023/09/29 01:15:59;;;;;;;11.00;5.82;;;;;;;14.90;100.00;100765.50;6276204;23;20023;-74
2023/09/29 01:18:29;;;;;;;13.35;5.90;;;;;;;14.83;100.00;100764.09;6273155;23;20466;-73
2023/09/29 01:21:00;;;;;;;10.75;5.38;;;;;;;14.90;100.00;100761.09;6275768;23;20103;-74
2023/09/29 01:23:33;;;;;;;11.13;5.90;;;;;;;14.83;100.00;100758.84;6272554;23;20381;-73
2023/09/29 01:26:03;;;;;;;10.40;6.15;;;;;;;14.78;100.00;100766.09;6274363;23;20016;-73
2023/09/29 01:28:33;;;;;;;12.02;5.88;;;;;;;14.79;100.00;100767.78;6271629;23;20032;-73
2023/09/29 01:31:06;;;;;;;14.20;6.28;;;;;;;14.79;100.00;100766.97;6273247;23;20027;-73
2023/09/29 01:33:39;;;;;;;12.38;6.15;;;;;;;14.87;100.00;100758.59;6274338;23;20813;-73
2023/09/29 01:36:09;;;;;;;10.60;6.20;;;;;;;14.82;100.00;100753.66;6272416;23;20047;-73
2023/09/29 01:38:40;;;;;;;12.13;6.88;;;;;;;14.87;100.00;100745.44;6280088;23;20009;-73
2023/09/29 01:41:13;;;;;;;14.68;6.32;;;;;;;14.94;100.00;100745.97;6274844;23;20024;-73
2023/09/29 01:43:45;;;;;;;11.48;6.88;;;;;;;14.91;100.00;100744.38;6279975;23;20028;-74
2023/09/29 01:46:15;;;;;;;11.25;6.97;;;;;;;14.93;100.00;100745.13;6271701;23;20617;-73
2023/09/29 01:48:45;;;;;;;9.85;7.05;;;;;;;14.86;100.00;100748.16;6274527;23;20020;-73
2023/09/29 01:51:17;;;;;;;9.65;6.53;;;;;;;14.83;100.00;100749.16;6272632;23;20139;-73
2023/09/29 01:53:48;;;;;;;9.60;6.40;;;;;;;14.85;100.00;100757.81;6273237;23;20733;-73
2023/09/29 01:56:21;;;;;;;12.55;6.47;;;;;;;14.90;100.00;100753.19;6270661;23;20012;-73
2023/09/29 01:58:51;;;;;;;11.77;6.43;;;;;;;14.92;100.00;100748.69;6273430;23;20548;-74
2023/09/29 02:01:21;;;;;;;10.70;6.07;;;;;;;14.97;100.00;100756.34;6271106;23;20070;-73
2023/09/29 02:03:52;;;;;;;13.43;7.05;;;;;;;15.04;100.00;100758.59;6276134;23;20127;-74
2023/09/29 02:06:22;;;;;;;12.90;7.40;;;;;;;14.99;100.00;100757.97;6271606;23;20412;-73
2023/09/29 02:08:52;;;;;;;12.35;7.28;;;;;;;15.02;100.00;100754.34;6273723;23;20024;-73
2023/09/29 02:11:23;;;;;;;14.75;9.23;;;;;;;14.92;100.00;100761.00;6269064;23;20016;-73
2023/09/29 02:13:53;;;;;;;15.25;8.88;;;;;;;14.92;100.00;100759.22;6274796;23;20022;-73
2023/09/29 02:16:23;;;;;;;15.85;7.43;;;;;;;14.93;100.00;100749.53;6276560;23;20016;-73
2023/09/29 02:18:55;;;;;;;13.50;6.70;;;;;;;14.84;100.00;100753.47;6273247;23;20016;-73
2023/09/29 02:21:28;;;;;;;11.57;6.55;;;;;;;14.94;100.00;100751.25;6271528;23;20035;-73
2023/09/29 02:23:59;;;;;;;9.95;6.10;;;;;;;14.90;100.00;100753.19;6274381;23;20020;-74
2023/09/29 02:26:29;;;;;;;11.60;6.05;;;;;;;14.95;100.00;100748.53;6274215;23;20008;-73
2023/09/29 02:29:00;;;;;;;10.98;6.50;;;;;;;14.97;100.00;100751.06;6272086;23;20025;-73
2023/09/29 02:31:31;;;;;;;13.15;6.47;;;;;;;14.96;100.00;100754.66;6275605;23;20020;-73
2023/09/29 02:34:02;;;;;;;13.93;6.45;;;;;;;15.05;100.00;100760.28;6272756;23;20718;-73
2023/09/29 02:36:34;;;;;;;11.93;7.28;;;;;;;15.09;100.00;100761.88;6271593;23;20440;-73
2023/09/29 02:39:05;;;;;;;9.80;6.65;;;;;;;15.23;100.00;100764.66;6274807;23;20465;-74
2023/09/29 02:41:38;;;;;;;12.02;7.07;;;;;;;15.29;100.00;100769.63;6274076;23;20028;-73
2023/09/29 02:44:09;;;;;;;11.55;6.88;;;;;;;15.30;100.00;100759.91;6272484;23;20013;-73
2023/09/29 02:46:39;;;;;;;15.30;7.60;;;;;;;15.32;100.00;100764.19;6278426;23;20470;-73
2023/09/29 02:49:10;;;;;;;16.63;6.90;;;;;;;15.32;100.00;100761.56;6275025;23;20366;-74
2023/09/29 02:51:40;;;;;;;11.95;7.03;;;;;;;15.30;100.00;100766.06;6275640;23;20027;-73
2023/09/29 02:54:10;;;;;;;9.40;6.50;;;;;;;15.38;100.00;100752.50;6272867;23;20051;-73
2023/09/29 02:56:41;;;;;;;13.05;6.30;;;;;;;15.32;100.00;100756.28;6276291;23;20055;-73
2023/09/29 02:59:12;;;;;;;10.95;6.85;;;;;;;15.27;100.00;100760.06;6273958;23;20104;-74
2023/09/29 03:01:44;;;;;;;9.75;6.50;;;;;;;15.36;100.00;100759.63;6272710;23;20497;-74
2023/09/29 03:04:15;;;;;;;14.32;7.13;;;;;;;15.30;100.00;100759.91;6284534;23;20089;-74
2023/09/29 03:06:46;;;;;;;9.60;6.20;;;;;;;15.29;100.00;100758.22;6277119;23;20061;-73
2023/09/29 03:09:18;;;;;;;11.18;6.78;;;;;;;15.28;100.00;100762.63;6266204;23;20735;-73
2023/09/29 03:11:49;;;;;;;9.55;6.82;;;;;;;15.31;100.00;100759.00;6270969;23;20569;-73
2023/09/29 03:14:19;;;;;;;12.88;7.47;;;;;;;15.28;100.00;100762.63;6281804;23;20043;-74
2023/09/29 03:16:49;;;;;;;10.38;7.20;;;;;;;15.29;100.00;100756.44;6277247;23;20234;-73
2023/09/29 03:19:20;;;;;;;11.23;6.53;;;;;;;15.19;100.00;100760.44;6274953;23;20036;-74
2023/09/29 03:21:51;;;;;;;11.45;7.38;;;;;;;15.17;100.00;100754.41;6277312;23;20095;-74
2023/09/29 03:24:21;;;;;;;11.10;6.93;;;;;;;15.20;100.00;100751.59;6280999;23;20065;-73
2023/09/29 03:26:52;;;;;;;14.30;7.22;;;;;;;15.12;100.00;100745.91;6271087;23;20021;-73
2023/09/29 03:29:23;;;;;;;11.45;7.00;;;;;;;15.27;100.00;100742.47;6280997;23;20039;-73
2023/09/29 03:31:54;;;;;;;9.52;6.85;;;;;;;15.28;100.00;100744.19;6272117;23;21259;-74
2023/09/29 03:34:24;;;;;;;10.32;7.30;;;;;;;15.20;100.00;100751.59;6280169;23;20020;-74
2023/09/29 03:36:55;;;;;;;10.80;7.70;;;;;;;15.14;100.00;100745.81;6278404;23;20058;-74
2023/09/29 03:39:25;;;;;;;13.07;6.90;;;;;;;15.17;100.00;100740.41;6280797;23;20024;-74
2023/09/29 03:41:55;;;;;;;10.15;6.63;;;;;;;15.22;100.00;100746.28;6277108;23;20374;-73
2023/09/29 03:44:26;;;;;;;10.63;6.85;;;;;;;15.20;100.00;100738.44;6269786;23;20012;-74
2023/09/29 03:46:56;;;;;;;12.82;7.50;;;;;;;15.23;100.00;100742.72;6278585;23;20013;-74
2023/09/29 03:49:26;;;;;;;13.10;8.10;;;;;;;15.27;100.00;100742.47;6268206;23;20043;-74
2023/09/29 03:51:57;;;;;;;11.98;7.95;;;;;;;15.38;100.00;100748.06;6268980;23;20681;-73
2023/09/29 03:54:27;;;;;;;12.38;7.57;;;;;;;15.39;100.00;100752.38;6280513;23;20040;-74
2023/09/29 03:56:58;;;;;;;15.95;7.82;;;;;;;15.33;100.00;100747.44;6279077;23;20437;-73
2023/09/29 03:59:28;;;;;;;14.25;7.47;;;;;;;15.41;100.00;100747.91;6272561;23;20058;-73
2023/09/29 04:01:59;;;;;;;14.07;8.30;;;;;;;15.38;100.00;100742.78;6279015;23;20024;-74
2023/09/29 04:04:29;;;;;;;15.18;7.68;;;;;;;15.41;100.00;100744.41;6282724;23;20016;-73
2023/09/29 04:06:59;;;;;;;11.95;7.10;;;;;;;15.50;100.00;100736.88;6276708;23;20020;-74
2023/09/29 04:09:30;;;;;;;14.65;6.97;;;;;;;15.48;100.00;100736.13;6282232;23;20590;-74
2023/09/29 04:12:00;;;;;;;14.02;7.85;;;;;;;15.46;100.00;100740.63;6284905;23;20071;-74
2023/09/29 04:14:30;;;;;;;10.07;6.90;;;;;;;15.49;100.00;100729.03;6282852;23;20473;-74
2023/09/29 04:17:01;;;;;;;12.77;6.60;;;;;;;15.44;100.00;100738.97;6278139;23;20019;-74
2023/09/29 04:19:32;;;;;;;10.45;6.85;;;;;;;15.43;100.00;100739.91;6277998;23;20044;-73
2023/09/29 04:22:02;;;;;;;9.70;5.90;;;;;;;15.50;100.00;100736.88;6284685;23;20374;-74
2023/09/29 04:24:32;;;;;;;8.52;6.30;;;;;;;15.45;100.00;100733.66;6284420;23;20031;-74
2023/09/29 04:27:03;;;;;;;9.70;6.60;;;;;;;15.46;100.00;100730.09;6281573;23;20016;-73
2023/09/29 04:29:33;;;;;;;8.13;5.28;;;;;;;15.55;100.00;100728.75;6284932;23;20145;-73
2023/09/29 04:32:04;;;;;;;8.95;5.65;;;;;;;15.58;100.00;100724.16;6271094;23;20186;-74
2023/09/29 04:34:34;;;;;;;11.55;6.28;;;;;;;15.60;100.00;100734.59;6279452;23;20558;-74
2023/09/29 04:37:04;;;;;;;12.38;6.85;;;;;;;15.57;100.00;100743.50;6279023;23;20023;-74
2023/09/29 04:39:35;;;;;;;9.18;6.38;;;;;;;15.58;100.00;100739.97;6281476;23;20405;-74
2023/09/29 04:42:05;;;;;;;13.48;6.53;;;;;;;15.61;100.00;100739.81;6279477;23;20031;-74
2023/09/29 04:44:37;;;;;;;14.13;7.13;;;;;;;15.61;100.00;100738.94;6256963;23;20328;-73
2023/09/29 04:47:07;;;;;;;10.23;6.65;;;;;;;15.63;100.00;100732.66;6248882;23;20031;-73
2023/09/29 04:49:38;;;;;;;13.18;6.68;;;;;;;15.65;100.00;100743.09;6249549;23;20084;-74
2023/09/29 04:52:08;;;;;;;12.35;7.10;;;;;;;15.67;100.00;100742.09;6247323;23;20016;-73
2023/09/29 04:54:39;;;;;;;10.20;6.20;;;;;;;15.65;100.00;100738.72;6276918;23;20259;-73
2023/09/29 04:57:09;;;;;;;8.85;6.07;;;;;;;15.65;100.00;100741.34;6277282;23;20047;-74
2023/09/29 04:59:39;;;;;;;9.98;6.00;;;;;;;15.69;100.00;100737.59;6280351;23;20381;-74
2023/09/29 05:02:10;;;;;;;10.95;6.53;;;;;;;15.72;100.00;100737.44;6276729;23;20166;-74
2023/09/29 05:04:40;;;;;;;13.18;6.32;;;;;;;15.74;100.00;100738.19;6269354;23;20016;-74
2023/09/29 05:07:12;;;;;;;8.90;6.30;;;;;;;15.71;100.00;100743.63;6261545;23;20028;-74
2023/09/29 05:09:42;;;;;;;9.40;6.50;;;;;;;15.74;100.00;100743.47;6271160;23;20404;-74
2023/09/29 05:12:12;;;;;;;10.07;6.20;;;;;;;15.78;100.00;100736.25;6272036;23;20022;-74
2023/09/29 05:14:43;;;;;;;12.30;5.65;;;;;;;15.78;100.00;100737.13;6262291;23;20496;-74
2023/09/29 05:17:14;;;;;;;8.63;5.22;;;;;;;15.80;100.00;100731.75;6268392;23;20031;-73
2023/09/29 05:19:44;;;;;;;9.40;6.05;;;;;;;15.77;100.00;100740.69;6264545;23;20023;-74
2023/09/29 05:22:14;;;;;;;8.88;5.60;;;;;;;15.77;100.00;100734.56;6285575;23;20024;-74
2023/09/29 05:24:45;;;;;;;7.78;5.60;;;;;;;15.80;100.00;100735.25;6282132;23;20550;-73
2023/09/29 05:27:15;;;;;;;8.25;5.30;;;;;;;15.85;100.00;100732.38;6280991;23;20732;-74
2023/09/29 05:29:46;;;;;;;8.68;4.93;;;;;;;15.88;100.00;100727.75;6275505;23;20334;-73
2023/09/29 05:32:16;;;;;;;8.35;4.78;;;;;;;15.94;100.00;100729.22;6272940;23;20012;-74
2023/09/29 05:34:46;;;;;;;7.95;5.40;;;;;;;15.94;100.00;100731.84;6272187;23;20016;-73
2023/09/29 05:37:17;;;;;;;10.25;5.22;;;;;;;15.95;100.00;100728.28;6270913;23;20016;-73
2023/09/29 05:39:47;;;;;;;8.55;5.63;;;;;;;15.94;100.00;100726.56;6271631;23;20016;-74
2023/09/29 05:42:20;;;;;;;8.20;4.82;;;;;;;15.97;100.00;100721.13;6264442;23;20088;-74
2023/09/29 05:44:50;;;;;;;10.57;5.70;;;;;;;15.98;100.00;100728.97;6272736;23;20024;-73
2023/09/29 05:47:21;;;;;;;8.75;5.38;;;;;;;16.04;100.00;100720.72;6260872;23;20037;-74
2023/09/29 05:49:51;;;;;;;9.35;5.82;;;;;;;15.99;100.00;100713.97;6278836;23;20362;-74
2023/09/29 05:52:22;;;;;;;10.43;5.78;;;;;;;16.01;100.00;100712.16;6270727;23;20071;-74
2023/09/29 05:54:52;;;;;;;7.90;5.40;;;;;;;16.05;100.00;100711.84;6277537;23;20035;-73
2023/09/29 05:57:23;;;;;;;8.05;5.30;;;;;;;16.11;100.00;100713.31;6273242;23;20017;-73
2023/09/29 05:59:54;;;;;;;7.68;4.97;;;;;;;16.24;100.00;100711.69;6269670;23;20260;-73
2023/09/29 06:02:25;;;;;;;7.75;5.18;;;;;;;16.27;100.00;100715.03;6269139;23;20094;-73
2023/09/29 06:04:55;;;;;;;8.45;4.97;;;;;;;16.32;100.00;100718.25;6276761;23;20020;-74
2023/09/29 06:07:25;;;;;;;12.70;5.60;;;;;;;16.36;100.00;100714.50;6272108;23;20020;-73
2023/09/29 06:09:55;;;;;;;12.15;5.05;;;;;;;16.42;100.00;100718.59;6275743;23;20388;-73
2023/09/29 06:12:26;;;;;;;9.40;4.93;;;;;;;16.53;100.00;100714.41;6276689;23;20016;-73
2023/09/29 06:14:57;;;;;;;7.10;4.47;;;;;;;16.54;100.00;100708.19;6277015;23;20109;-73
2023/09/29 06:17:27;;;;;;;9.98;5.07;;;;;;;16.58;100.00;100719.41;6273863;23;20373;-73
2023/09/29 06:19:57;;;;;;;7.03;4.70;;;;;;;16.62;100.00;100707.75;6278067;23;20026;-73
2023/09/29 06:22:28;;;;;;;7.45;4.78;;;;;;;16.57;100.00;100705.38;6275111;23;20034;-73
2023/09/29 06:24:58;;;;;;;7.10;4.45;;;;;;;16.66;100.00;100711.91;6277398;23;20577;-74
2023/09/29 06:27:28;;;;;;;6.32;4.40;;;;;;;16.74;100.00;100714.97;6274960;23;20368;-74
2023/09/29 06:29:59;;;;;;;6.90;4.60;;;;;;;16.80;100.00;100723.38;6277435;23;20110;-74
2023/09/29 06:32:29;;;;;;;6.65;4.28;;;;;;;16.90;100.00;100706.03;6272306;23;20016;-73
2023/09/29 06:34:59;;;;;;;7.97;4.80;;;;;;;16.97;100.00;100712.66;6277371;23;20095;-74
2023/09/29 06:37:30;;;;;;;8.55;4.72;;;;;;;17.10;100.00;100695.13;6273209;23;20111;-73
2023/09/29 06:40:00;;;;;;;6.47;4.03;;;;;;;17.16;100.00;100697.41;6278184;23;20767;-72
2023/09/29 06:42:31;;;;;;;7.70;4.80;;;;;;;17.22;100.00;100710.25;6274004;23;20013;-72
2023/09/29 06:45:02;;;;;;;8.00;4.25;;;;;;;17.27;100.00;100716.09;6277164;23;20434;-73
2023/09/29 06:47:32;;;;;;;7.88;4.38;;;;;;;17.32;100.00;100719.31;6275987;23;20395;-71
2023/09/29 06:50:03;;;;;;;13.02;4.45;;;;;;;17.34;100.00;100720.94;6275233;23;20023;-72
2023/09/29 06:52:33;;;;;;;6.22;4.20;;;;;;;17.41;100.00;100721.41;6272165;23;20020;-74
2023/09/29 06:55:04;;;;;;;6.97;3.63;;;;;;;17.45;100.00;100722.97;6273261;23;20020;-74
2023/09/29 06:57:35;;;;;;;6.53;3.83;;;;;;;17.54;100.00;100722.38;6277179;23;20356;-74
2023/09/29 07:00:08;;;;;;;6.35;3.90;;;;;;;17.59;100.00;100722.94;6279554;23;20026;-75
2023/09/29 07:02:38;;;;;;;5.22;3.50;;;;;;;17.68;100.00;100730.31;6277004;23;20421;-74
2023/09/29 07:05:09;;;;;;;6.03;3.58;;;;;;;17.73;100.00;100736.16;6277151;23;20028;-74
2023/09/29 07:07:39;;;;;;;6.65;3.58;;;;;;;17.79;100.00;100730.50;6275715;23;20016;-74
2023/09/29 07:10:10;;;;;;;5.63;3.20;;;;;;;17.85;100.00;100732.75;6274857;23;20013;-74
2023/09/29 07:12:40;;;;;;;6.75;3.67;;;;;;;17.88;100.00;100729.91;6279087;23;20089;-74
2023/09/29 07:15:11;;;;;;;4.63;3.05;;;;;;;17.93;100.00;100728.69;6276487;23;20056;-74
2023/09/29 07:17:41;;;;;;;5.60;2.97;;;;;;;17.97;100.00;100732.00;6274042;23;20523;-74
2023/09/29 07:20:12;;;;;;;5.45;3.50;;;;;;;17.98;100.00;100741.63;6276647;23;20102;-74
2023/09/29 07:22:43;;;;;;;4.53;3.00;;;;;;;17.99;100.00;100727.44;6278659;23;20016;-74
2023/09/29 07:25:14;;;;;;;5.13;3.92;;;;;;;18.04;100.00;100718.25;6276474;23;20013;-74
2023/09/29 07:27:44;;;;;;;7.65;3.63;;;;;;;18.04;100.00;100720.88;6278213;23;20465;-74
2023/09/29 07:30:15;;;;;;;6.78;3.75;;;;;;;18.07;100.00;100722.50;6278018;23;20025;-74
2023/09/29 07:32:45;;;;;;;5.00;2.90;;;;;;;18.12;100.00;100723.03;6278024;23;20017;-74
2023/09/29 07:35:15;;;;;;;5.78;3.70;;;;;;;18.13;100.00;100722.97;6273884;23;20021;-74
2023/09/29 07:37:46;;;;;;;10.95;4.25;;;;;;;18.25;100.00;100708.09;6269146;23;20019;-74
2023/09/29 07:40:17;;;;;;;8.50;4.55;;;;;;;18.24;100.00;100714.34;6273517;23;20028;-74
2023/09/29 07:42:47;;;;;;;5.13;3.30;;;;;;;18.34;100.00;100720.78;6278352;23;20012;-74
2023/09/29 07:45:22;;;;;;;5.55;3.97;;;;;;;18.38;100.00;100719.63;6275556;23;20200;-74
2023/09/29 07:47:52;;;;;;;6.32;3.88;;;;;;;18.44;100.00;100716.56;6279178;23;20024;-74
2023/09/29 07:50:23;;;;;;;6.90;3.70;;;;;;;18.41;100.00;100716.75;6275572;23;20023;-74
2023/09/29 07:52:53;;;;;;;6.90;4.00;;;;;;;18.40;100.00;100723.88;6276736;23;20031;-74
2023/09/29 07:55:23;;;;;;;8.23;4.03;;;;;;;18.39;100.00;100727.47;6276479;23;20016;-74
2023/09/29 07:57:54;;;;;;;6.43;3.67;;;;;;;18.37;100.00;100725.88;6274154;23;20392;-74
2023/09/29 08:00:24;;;;;;;6.47;4.18;;;;;;;18.35;100.00;100730.41;6273113;23;20017;-73
2023/09/29 08:02:54;;;;;;;5.63;3.60;;;;;;;18.34;100.00;100729.53;6277191;23;20020;-74
2023/09/29 08:05:25;;;;;;;8.82;3.55;;;;;;;18.34;100.00;100741.94;6275763;23;20429;-74
2023/09/29 08:07:55;;;;;;;7.47;3.30;;;;;;;18.39;100.00;100739.84;6277617;23;20202;-74
2023/09/29 08:10:25;;;;;;;5.95;3.88;;;;;;;18.48;100.00;100736.63;6276388;23;20311;-73
2023/09/29 08:12:56;;;;;;;8.38;4.13;;;;;;;18.49;100.00;100735.66;6277609;23;20114;-74
2023/09/29 08:15:26;;;;;;;5.68;3.80;;;;;;;18.46;100.00;100738.47;6275504;23;20023;-74
2023/09/29 08:17:56;;;;;;;7.07;4.10;;;;;;;18.49;100.00;100743.59;6277417;23;20019;-74
2023/09/29 08:20:27;;;;;;;8.85;4.90;;;;;;;18.59;100.00;100734.09;6277204;23;20588;-74
2023/09/29 08:22:57;;;;;;;10.25;5.30;;;;;;;18.57;100.00;100730.69;6277191;23;20027;-74
2023/09/29 08:25:27;;;;;;;9.98;4.97;;;;;;;18.52;100.00;100735.47;6270727;23;20390;-74
2023/09/29 08:28:02;;;;;;;9.43;5.22;;;;;;;18.53;100.00;100730.03;6278126;23;20039;-74
2023/09/29 08:30:32;;;;;;;9.63;5.40;;;;;;;18.56;100.00;100734.31;6272869;23;20432;-73
2023/09/29 08:33:03;;;;;;;11.65;5.28;;;;;;;18.64;100.00;100726.69;6275774;23;20016;-74
2023/09/29 08:35:33;;;;;;;9.20;6.05;;;;;;;18.63;100.00;100725.84;6276737;23;20131;-74
2023/09/29 08:38:05;;;;;;;11.75;6.03;;;;;;;18.76;100.00;100722.28;6272731;23;20095;-74
2023/09/29 08:40:39;;;;;;;9.23;5.30;;;;;;;18.84;100.00;100733.22;6276222;23;20021;-73
2023/09/29 08:43:12;;;;;;;9.60;5.32;;;;;;;19.00;100.00;100728.59;6276130;23;20013;-74
2023/09/29 08:45:43;;;;;;;9.38;4.80;;;;;;;19.18;100.00;100734.47;6279204;23;20019;-74
2023/09/29 08:48:14;;;;;;;7.47;4.15;;;;;;;19.34;100.00;100717.44;6275824;23;20027;-74
2023/09/29 08:50:49;;;;;;;8.25;4.30;;;;;;;19.43;100.00;100729.19;6275544;23;20087;-74
2023/09/29 08:53:22;;;;;;;8.40;4.65;;;;;;;19.42;100.00;100730.97;6273361;23;20390;-74
2023/09/29 08:55:54;;;;;;;8.80;4.07;;;;;;;19.48;100.00;100729.72;6278929;23;20452;-74
2023/09/29 08:58:24;;;;;;;6.85;3.72;;;;;;;19.54;100.00;100740.75;6274593;23;20488;-73
2023/09/29 09:00:55;;;;;;;7.28;4.05;;;;;;;19.55;100.00;100744.22;6278747;23;20020;-74
2023/09/29 09:03:26;;;;;;;9.85;3.83;;;;;;;19.52;100.00;100734.72;6275301;23;20466;-74
2023/09/29 09:05:56;;;;;;;6.32;3.88;;;;;;;19.59;100.00;100746.56;6280357;23;20027;-74
2023/09/29 09:08:27;;;;;;;5.57;3.30;;;;;;;19.60;100.00;100748.25;6274765;23;20048;-74
2023/09/29 09:10:58;;;;;;;5.40;3.60;;;;;;;19.55;100.00;100750.41;6279486;23;20019;-74
2023/09/29 09:13:29;;;;;;;6.97;3.97;;;;;;;19.58;100.00;100742.22;6279405;23;20399;-74
2023/09/29 09:16:00;;;;;;;5.55;3.78;;;;;;;19.60;100.00;100734.19;6279361;23;20016;-74
2023/09/29 09:18:30;;;;;;;6.45;4.25;;;;;;;19.56;100.00;100736.19;6277890;23;20114;-74
2023/09/29 09:21:00;;;;;;;5.50;3.40;;;;;;;19.58;100.00;100734.28;6276166;23;20059;-74
2023/09/29 09:23:37;;;;;;;5.55;3.30;;;;;;;19.63;100.00;100732.13;6280017;23;20036;-74
2023/09/29 09:26:11;;;;;;;7.97;3.95;;;;;;;19.62;100.00;100735.75;6275425;23;20020;-74
2023/09/29 09:28:42;;;;;;;7.93;3.90;;;;;;;19.58;100.00;100723.66;6275843;23;20477;-74
2023/09/29 09:31:12;;;;;;;7.30;3.88;;;;;;;19.54;100.00;100721.31;6279751;23;20023;-74
2023/09/29 09:33:49;;;;;;;6.50;4.00;;;;;;;19.51;100.00;100716.25;6276349;23;21562;-74
2023/09/29 09:36:20;;;;;;;7.85;4.65;;;;;;;19.50;100.00;100718.06;6269392;23;20083;-74
2023/09/29 09:38:51;;;;;;;7.18;4.35;;;;;;;19.52;100.00;100713.50;6280646;23;20046;-74
2023/09/29 09:41:22;;;;;;;6.55;3.88;;;;;;;19.58;100.00;100702.44;6274643;23;20098;-74
2023/09/29 09:43:52;;;;;;;8.98;4.18;;;;;;;19.60;100.00;100702.34;6282317;23;20019;-74
2023/09/29 09:46:23;;;;;;;7.20;3.63;;;;;;;19.68;100.00;100713.25;6275229;23;20501;-74
2023/09/29 09:49:13;;;;;;;6.32;3.70;;;;;;;19.76;100.00;100705.63;6277433;23;20031;-74
2023/09/29 09:51:47;;;;;;;6.70;4.00;;;;;;;19.78;100.00;100712.50;6277171;23;20020;-74
2023/09/29 09:54:26;;;;;;;6.95;3.80;;;;;;;19.86;100.00;100696.88;6270718;23;20503;-74
2023/09/29 09:57:04;;;;;;;6.68;3.90;;;;;;;19.93;100.00;100690.16;6279218;23;20051;-74
2023/09/29 09:59:35;;;;;;;5.40;3.40;;;;;;;20.02;100.00;100697.50;6281558;23;20389;-73
2023/09/29 10:02:08;;;;;;;8.23;3.60;;;;;;;20.15;100.00;100685.03;6279580;23;20592;-74
2023/09/29 10:04:39;;;;;;;7.00;3.60;;;;;;;20.26;100.00;100685.09;6277674;23;20102;-74
2023/09/29 10:07:09;;;;;;;6.95;3.55;;;;;;;20.44;100.00;100682.91;6283798;23;20016;-74
2023/09/29 10:09:45;;;;;;;5.80;3.50;;;;;;;20.47;100.00;100680.84;6279957;23;20023;-74
2023/09/29 10:12:52;;;;;;;5.80;3.55;;;;;;;20.55;100.00;100673.19;6280564;23;20024;-73
2023/09/29 10:15:22;;;;;;;;;;;;;;;20.69;100.00;100670.34;6282591;23;20023;-74
2023/09/29 10:17:53;;;;;;;7.78;3.35;;;;;;;20.73;100.00;100679.75;6283385;23;19916;-74
2023/09/29 10:20:26;;;;;;;5.50;3.28;;;;;;;20.81;100.00;100675.56;6282010;23;20495;-73
2023/09/29 10:23:07;;;;;;;6.32;3.40;;;;;;;20.90;100.00;100676.72;6278333;23;20363;-74
2023/09/29 10:25:39;;;;;;;6.18;3.17;;;;;;;21.09;100.00;100682.31;6281455;23;20028;-74
2023/09/29 10:28:12;;;;;;;7.47;3.28;;;;;;;21.29;100.00;100692.25;6273817;23;20012;-74
2023/09/29 10:30:42;;;;;;;6.50;3.30;;;;;;;21.42;100.00;100688.50;6265246;23;20238;-74
2023/09/29 10:33:13;;;;;;;6.72;3.03;;;;;;;21.56;100.00;100687.44;6259823;23;20441;-74
2023/09/29 10:35:45;;;;;;;7.22;3.17;;;;;;;21.58;100.00;100677.50;6268173;23;20279;-74
2023/09/29 10:38:23;;;;;;;8.68;3.30;;;;;;;21.66;100.00;100681.28;6271921;23;20490;-74
2023/09/29 10:40:53;;;;;;;6.10;2.83;;;;;;;22.03;100.00;100680.03;6276242;23;20162;-74
2023/09/29 10:43:24;;;;;;;4.30;2.53;;;;;;;22.06;100.00;100676.28;6275189;23;20024;-73
2023/09/29 10:45:56;;;;;;;6.35;2.92;;;;;;;22.20;100.00;100673.31;6277857;23;20016;-74
2023/09/29 10:48:27;;;;;;;5.40;2.92;;;;;;;22.22;100.00;100672.22;6270611;23;20012;-74
2023/09/29 10:50:58;;;;;;;6.15;2.70;;;;;;;22.20;100.00;100668.00;6276569;23;20532;-74
2023/09/29 10:53:36;;;;;;;5.85;2.80;;;;;;;22.34;100.00;100665.91;6275906;23;20049;-74
2023/09/29 10:56:08;;;;;;;6.43;2.75;;;;;;;22.42;100.00;100659.97;6273475;23;20127;-74
2023/09/29 10:58:38;;;;;;;4.70;2.90;;;;;;;22.30;100.00;100655.63;6274214;23;20087;-74
2023/09/29 11:01:08;;;;;;;9.18;2.70;;;;;;;22.41;100.00;100658.28;6273315;23;20102;-74
2023/09/29 11:03:39;;;;;;;7.57;2.90;;;;;;;22.46;100.00;100654.25;6274392;23;20015;-74
2023/09/29 11:06:16;;;;;;;4.65;2.72;;;;;;;22.47;100.00;100660.44;6275772;23;20510;-74
2023/09/29 11:08:58;;;;;;;8.07;2.60;;;;;;;22.66;100.00;100650.78;6276755;23;20016;-74
2023/09/29 11:11:39;;;;;;;4.82;2.42;;;;;;;22.59;100.00;100651.44;6271316;23;20067;-74
2023/09/29 11:14:09;;;;;;;4.03;2.35;;;;;;;22.68;100.00;100655.00;6276453;23;20012;-74
2023/09/29 11:16:40;;;;;;;9.30;2.47;;;;;;;22.65;100.00;100642.91;6276085;23;20099;-74
2023/09/29 11:19:12;;;;;;;5.25;2.35;;;;;;;22.74;100.00;100637.66;6278532;23;20063;-74
2023/09/29 11:21:42;;;;;;;6.28;2.45;;;;;;;22.67;100.00;100651.63;6271743;23;20028;-74
2023/09/29 11:24:14;;;;;;;5.78;2.70;;;;;;;22.63;100.00;100651.03;6273417;23;20255;-74
2023/09/29 11:26:46;;;;;;;8.90;2.45;;;;;;;22.58;100.00;100636.41;6279725;23;20020;-74
2023/09/29 11:29:21;;;;;;;6.72;2.50;;;;;;;22.58;100.00;100637.25;6274848;23;20402;-74
2023/09/29 11:31:53;;;;;;;5.13;2.47;;;;;;;22.62;100.00;100633.34;6266079;23;20023;-74